Time,TemperatureF,DewpointF,PressureIn,WindDirection,WindDirectionDegrees,WindSpeedMPH,WindSpeedGustMPH,Humidity,HourlyPrecipIn,Conditions,Clouds,dailyrainin,SoftwareType,DateUTC
2013-04-12 00:03:00,37.0,33.0,29.77,SW,225,7.0,9.0,83,-99.99,,,-99.99,,2013-04-12 05:03:00,
2013-04-12 00:12:00,37.0,33.0,29.77,SW,225,6.0,9.0,84,-99.99,,,-99.99,,2013-04-12 05:12:00,
2013-04-12 00:22:00,38.0,33.0,29.77,SW,225,7.0,11.0,83,-99.99,,,-99.99,,2013-04-12 05:22:00,
2013-04-12 00:32:00,38.0,33.0,29.77,WSW,247,8.0,11.0,83,-99.99,,,-99.99,,2013-04-12 05:32:00,
2013-04-12 00:42:00,38.0,33.0,29.77,SW,225,7.0,9.0,84,-99.99,,,-99.99,,2013-04-12 05:42:00,
2013-04-12 00:52:00,38.0,33.0,29.77,WSW,247,8.0,12.0,83,-99.99,,,-99.99,,2013-04-12 05:52:00,
2013-04-12 01:02:00,38.0,33.0,29.77,WSW,247,7.0,10.0,83,-99.99,,,-99.99,,2013-04-12 06:02:00,
2013-04-12 01:12:00,38.0,33.0,29.77,WSW,247,5.0,9.0,84,-99.99,,,-99.99,,2013-04-12 06:12:00,
2013-04-12 01:22:00,38.0,33.0,29.77,WSW,247,7.0,10.0,83,-99.99,,,-99.99,,2013-04-12 06:22:00,
2013-04-12 01:32:00,38.0,33.0,29.77,WSW,247,6.0,9.0,84,-99.99,,,-99.99,,2013-04-12 06:32:00,
2013-04-12 01:42:00,37.0,33.0,29.77,WSW,247,6.0,9.0,85,-99.99,,,-99.99,,2013-04-12 06:42:00,
2013-04-12 01:52:00,37.0,33.0,29.77,WSW,247,7.0,11.0,83,-99.99,,,-99.99,,2013-04-12 06:52:00,
2013-04-12 02:01:00,38.0,32.0,29.77,West,270,6.0,9.0,81,-99.99,,,-99.99,,2013-04-12 07:01:00,
2013-04-12 02:11:00,37.0,32.0,29.77,West,270,6.0,10.0,82,-99.99,,,-99.99,,2013-04-12 07:11:00,
2013-04-12 02:22:00,36.0,32.0,29.77,West,270,5.0,8.0,83,-99.99,,,-99.99,,2013-04-12 07:22:00,
2013-04-12 02:32:00,36.0,32.0,29.77,WSW,247,5.0,8.0,84,-99.99,,,-99.99,,2013-04-12 07:32:00,
2013-04-12 02:42:00,36.0,32.0,29.77,WSW,247,6.0,10.0,85,-99.99,,,-99.99,,2013-04-12 07:42:00,
2013-04-12 02:52:00,36.0,32.0,29.77,WSW,247,5.0,8.0,86,-99.99,,,-99.99,,2013-04-12 07:52:00,
2013-04-12 03:03:00,36.0,32.0,29.77,WSW,247,7.0,10.0,85,-99.99,,,-99.99,,2013-04-12 08:03:00,
2013-04-12 03:12:00,36.0,32.0,29.77,WSW,247,7.0,10.0,87,-99.99,,,-99.99,,2013-04-12 08:12:00,
2013-04-12 03:22:00,36.0,32.0,29.77,WSW,247,6.0,9.0,87,-99.99,,,-99.99,,2013-04-12 08:22:00,
2013-04-12 03:32:00,36.0,32.0,29.77,WSW,247,7.0,9.0,86,-99.99,,,-99.99,,2013-04-12 08:32:00,
2013-04-12 03:42:00,36.0,32.0,29.77,WSW,247,6.0,9.0,87,-99.99,,,-99.99,,2013-04-12 08:42:00,
2013-04-12 03:52:00,36.0,32.0,29.77,WSW,247,6.0,9.0,87,-99.99,,,-99.99,,2013-04-12 08:52:00,
2013-04-12 04:02:00,36.0,32.0,29.77,WSW,247,7.0,10.0,87,-99.99,,,-99.99,,2013-04-12 09:02:00,
2013-04-12 04:12:00,36.0,32.0,29.77,WSW,247,7.0,11.0,87,-99.99,,,-99.99,,2013-04-12 09:12:00,
2013-04-12 04:22:00,36.0,32.0,29.77,WSW,247,8.0,12.0,86,-99.99,,,-99.99,,2013-04-12 09:22:00,
2013-04-12 04:32:00,36.0,32.0,29.77,WSW,247,6.0,9.0,87,-99.99,,,-99.99,,2013-04-12 09:32:00,
2013-04-12 04:43:00,35.0,32.0,29.77,WSW,247,6.0,10.0,88,-99.99,,,-99.99,,2013-04-12 09:43:00,
2013-04-12 04:52:00,34.0,32.0,29.77,SW,225,6.0,9.0,90,-99.99,,,-99.99,,2013-04-12 09:52:00,
2013-04-12 05:02:00,34.0,31.0,29.77,WSW,247,7.0,10.0,89,-99.99,,,-99.99,,2013-04-12 10:02:00,
2013-04-12 05:12:00,34.0,31.0,29.77,WSW,247,8.0,11.0,89,-99.99,,,-99.99,,2013-04-12 10:12:00,
2013-04-12 05:23:00,34.0,31.0,29.77,WSW,247,7.0,11.0,89,-99.99,,,-99.99,,2013-04-12 10:23:00,
2013-04-12 05:33:00,34.0,32.0,29.77,WSW,247,7.0,10.0,89,-99.99,,,-99.99,,2013-04-12 10:33:00,
2013-04-12 05:42:00,35.0,32.0,29.77,WSW,247,7.0,9.0,89,-99.99,,,-99.99,,2013-04-12 10:42:00,
2013-04-12 05:52:00,35.0,32.0,29.77,WSW,247,8.0,12.0,89,-99.99,,,-99.99,,2013-04-12 10:52:00,
2013-04-12 06:02:00,35.0,32.0,29.78,WSW,247,8.0,12.0,89,-99.99,,,-99.99,,2013-04-12 11:02:00,
2013-04-12 06:12:00,35.0,32.0,29.78,WSW,247,10.0,13.0,88,-99.99,,,-99.99,,2013-04-12 11:12:00,
2013-04-12 06:22:00,35.0,32.0,29.78,WSW,247,10.0,13.0,88,-99.99,,,-99.99,,2013-04-12 11:22:00,
2013-04-12 06:32:00,35.0,32.0,29.78,WSW,247,10.0,14.0,88,-99.99,,,-99.99,,2013-04-12 11:32:00,
2013-04-12 06:42:00,35.0,31.0,29.79,WSW,247,11.0,17.0,86,-99.99,,,-99.99,,2013-04-12 11:42:00,
2013-04-12 06:52:00,35.0,31.0,29.79,WSW,247,10.0,15.0,87,-99.99,,,-99.99,,2013-04-12 11:52:00,
2013-04-12 07:02:00,34.0,31.0,29.80,WSW,247,8.0,12.0,88,-99.99,,,-99.99,,2013-04-12 12:02:00,
2013-04-12 07:12:00,35.0,32.0,29.80,WSW,247,9.0,13.0,88,-99.99,,,-99.99,,2013-04-12 12:12:00,
2013-04-12 07:22:00,35.0,32.0,29.81,WSW,247,10.0,14.0,87,-99.99,,,-99.99,,2013-04-12 12:22:00,
2013-04-12 07:32:00,36.0,32.0,29.81,WSW,247,9.0,13.0,87,-99.99,,,-99.99,,2013-04-12 12:32:00,
2013-04-12 07:42:00,36.0,32.0,29.82,WSW,247,8.0,11.0,88,-99.99,,,-99.99,,2013-04-12 12:42:00,
2013-04-12 07:52:00,36.0,32.0,29.82,WSW,247,10.0,14.0,87,-99.99,,,-99.99,,2013-04-12 12:52:00,
2013-04-12 08:03:00,36.0,32.0,29.82,WSW,247,10.0,15.0,87,-99.99,,,-99.99,,2013-04-12 13:03:00,
2013-04-12 08:12:00,36.0,32.0,29.82,WSW,247,12.0,15.0,86,-99.99,,,-99.99,,2013-04-12 13:12:00,
2013-04-12 08:22:00,36.0,32.0,29.82,WSW,247,10.0,14.0,87,-99.99,,,-99.99,,2013-04-12 13:22:00,
2013-04-12 08:32:00,36.0,32.0,29.83,West,270,10.0,15.0,86,-99.99,,,-99.99,,2013-04-12 13:32:00,
2013-04-12 08:42:00,36.0,32.0,29.83,West,270,10.0,16.0,87,-99.99,,,-99.99,,2013-04-12 13:42:00,
2013-04-12 08:52:00,36.0,32.0,29.83,West,270,10.0,15.0,86,-99.99,,,-99.99,,2013-04-12 13:52:00,
2013-04-12 09:03:00,36.0,32.0,29.84,West,270,8.0,12.0,86,-99.99,,,-99.99,,2013-04-12 14:03:00,
2013-04-12 09:12:00,36.0,32.0,29.84,West,270,10.0,16.0,86,-99.99,,,-99.99,,2013-04-12 14:12:00,
2013-04-12 09:22:00,36.0,32.0,29.84,West,270,10.0,14.0,86,-99.99,,,-99.99,,2013-04-12 14:22:00,
2013-04-12 09:32:00,37.0,33.0,29.85,WSW,247,10.0,16.0,85,-99.99,,,-99.99,,2013-04-12 14:32:00,
2013-04-12 09:42:00,37.0,33.0,29.85,West,270,10.0,16.0,83,-99.99,,,-99.99,,2013-04-12 14:42:00,
2013-04-12 09:52:00,38.0,32.0,29.85,West,270,12.0,18.0,79,-99.99,,,-99.99,,2013-04-12 14:52:00,
2013-04-12 10:02:00,38.0,32.0,29.86,West,270,11.0,17.0,78,-99.99,,,-99.99,,2013-04-12 15:02:00,
2013-04-12 10:12:00,38.0,32.0,29.86,West,270,11.0,22.0,78,-99.99,,,-99.99,,2013-04-12 15:12:00,
2013-04-12 10:22:00,38.0,32.0,29.86,West,270,10.0,15.0,79,-99.99,,,-99.99,,2013-04-12 15:22:00,
2013-04-12 10:33:00,38.0,33.0,29.87,West,270,10.0,15.0,82,-99.99,,,-99.99,,2013-04-12 15:33:00,
2013-04-12 10:43:00,37.0,32.0,29.88,West,270,14.0,20.0,81,-99.99,,,-99.99,,2013-04-12 15:43:00,
2013-04-12 10:53:00,38.0,33.0,29.88,West,270,11.0,15.0,82,-99.99,,,-99.99,,2013-04-12 15:53:00,
2013-04-12 11:03:00,38.0,33.0,29.88,West,270,12.0,18.0,82,-99.99,,,-99.99,,2013-04-12 16:03:00,
2013-04-12 11:13:00,38.0,33.0,29.89,West,270,12.0,19.0,81,-99.99,,,-99.99,,2013-04-12 16:13:00,
2013-04-12 11:23:00,38.0,32.0,29.89,West,270,13.0,19.0,78,-99.99,,,-99.99,,2013-04-12 16:23:00,
2013-04-12 11:33:00,38.0,32.0,29.90,West,270,13.0,18.0,78,-99.99,,,-99.99,,2013-04-12 16:33:00,
2013-04-12 11:42:00,39.0,33.0,29.90,West,270,11.0,16.0,79,-99.99,,,-99.99,,2013-04-12 16:42:00,
2013-04-12 11:52:00,39.0,32.0,29.90,West,270,11.0,17.0,78,-99.99,,,-99.99,,2013-04-12 16:52:00,
2013-04-12 12:03:00,39.0,32.0,29.91,West,270,13.0,20.0,77,-99.99,,,-99.99,,2013-04-12 17:03:00,
2013-04-12 12:12:00,39.0,32.0,29.91,West,270,13.0,17.0,77,-99.99,,,-99.99,,2013-04-12 17:12:00,
2013-04-12 12:22:00,39.0,33.0,29.91,West,270,13.0,19.0,78,-99.99,,,-99.99,,2013-04-12 17:22:00,
2013-04-12 12:33:00,39.0,33.0,29.91,West,270,13.0,20.0,78,-99.99,,,-99.99,,2013-04-12 17:33:00,
2013-04-12 12:44:00,40.0,33.0,29.92,West,270,12.0,19.0,78,-99.99,,,-99.99,,2013-04-12 17:44:00,
2013-04-12 12:56:00,40.0,33.0,29.92,West,270,13.0,18.0,77,-99.99,,,-99.99,,2013-04-12 17:56:00,
2013-04-12 13:09:00,40.0,34.0,29.93,West,270,11.0,16.0,78,-99.99,,,-99.99,,2013-04-12 18:09:00,
2013-04-12 14:26:00,40.0,33.0,29.95,West,270,15.0,23.0,77,-99.99,,,-99.99,,2013-04-12 19:26:00,
2013-04-12 14:32:00,40.0,34.0,29.95,West,270,13.0,22.0,78,-99.99,,,-99.99,,2013-04-12 19:32:00,
2013-04-12 14:42:00,41.0,34.0,29.95,WNW,292,13.0,17.0,77,-99.99,,,-99.99,,2013-04-12 19:42:00,
2013-04-12 14:52:00,42.0,34.0,29.96,West,270,14.0,20.0,75,-99.99,,,-99.99,,2013-04-12 19:52:00,
2013-04-12 15:02:00,41.0,34.0,29.96,West,270,14.0,20.0,76,-99.99,,,-99.99,,2013-04-12 20:02:00,
2013-04-12 15:12:00,41.0,34.0,29.96,West,270,14.0,19.0,76,-99.99,,,-99.99,,2013-04-12 20:12:00,
2013-04-12 15:22:00,41.0,34.0,29.96,West,270,13.0,20.0,76,-99.99,,,-99.99,,2013-04-12 20:22:00,
2013-04-12 15:32:00,41.0,34.0,29.96,West,270,13.0,19.0,76,-99.99,,,-99.99,,2013-04-12 20:32:00,
2013-04-12 15:42:00,41.0,34.0,29.96,West,270,14.0,21.0,75,-99.99,,,-99.99,,2013-04-12 20:42:00,
2013-04-12 15:52:00,41.0,34.0,29.96,West,270,11.0,16.0,77,-99.99,,,-99.99,,2013-04-12 20:52:00,
2013-04-12 16:02:00,41.0,34.0,29.97,West,270,12.0,17.0,76,-99.99,,,-99.99,,2013-04-12 21:02:00,
2013-04-12 16:12:00,41.0,34.0,29.97,West,270,13.0,18.0,76,-99.99,,,-99.99,,2013-04-12 21:12:00,
2013-04-12 16:22:00,41.0,34.0,29.97,West,270,14.0,20.0,75,-99.99,,,-99.99,,2013-04-12 21:22:00,
2013-04-12 16:32:00,41.0,34.0,29.97,West,270,13.0,20.0,75,-99.99,,,-99.99,,2013-04-12 21:32:00,
2013-04-12 16:43:00,41.0,34.0,29.97,WNW,292,11.0,16.0,77,-99.99,,,-99.99,,2013-04-12 21:43:00,
2013-04-12 16:52:00,41.0,35.0,29.97,West,270,9.0,13.0,79,-99.99,,,-99.99,,2013-04-12 21:52:00,
2013-04-12 17:02:00,42.0,34.0,29.97,West,270,12.0,17.0,75,-99.99,,,-99.99,,2013-04-12 22:02:00,
2013-04-12 17:12:00,41.0,34.0,29.98,West,270,9.0,13.0,76,-99.99,,,-99.99,,2013-04-12 22:12:00,
2013-04-12 17:22:00,42.0,34.0,29.97,West,270,10.0,17.0,75,-99.99,,,-99.99,,2013-04-12 22:22:00,
2013-04-12 17:32:00,42.0,35.0,29.98,West,270,9.0,14.0,77,-99.99,,,-99.99,,2013-04-12 22:32:00,
2013-04-12 17:42:00,41.0,34.0,29.98,West,270,12.0,18.0,76,-99.99,,,-99.99,,2013-04-12 22:42:00,
2013-04-12 17:52:00,41.0,34.0,29.99,West,270,12.0,18.0,75,-99.99,,,-99.99,,2013-04-12 22:52:00,
2013-04-12 18:03:00,41.0,35.0,29.99,West,270,9.0,16.0,77,-99.99,,,-99.99,,2013-04-12 23:03:00,
2013-04-12 18:12:00,41.0,34.0,29.99,WNW,292,10.0,16.0,76,-99.99,,,-99.99,,2013-04-12 23:12:00,
2013-04-12 18:22:00,41.0,34.0,29.99,West,270,10.0,14.0,77,-99.99,,,-99.99,,2013-04-12 23:22:00,
2013-04-12 18:32:00,41.0,34.0,30.00,West,270,12.0,16.0,76,-99.99,,,-99.99,,2013-04-12 23:32:00,
2013-04-12 18:42:00,41.0,34.0,30.00,WNW,292,10.0,14.0,76,-99.99,,,-99.99,,2013-04-12 23:42:00,
2013-04-12 18:52:00,41.0,35.0,30.00,West,270,8.0,12.0,78,-99.99,,,-99.99,,2013-04-12 23:52:00,
2013-04-12 19:02:00,41.0,34.0,30.00,West,270,8.0,11.0,77,-99.99,,,-99.99,,2013-04-13 00:02:00,
2013-04-12 19:12:00,41.0,33.0,30.00,West,270,9.0,14.0,74,-99.99,,,-99.99,,2013-04-13 00:12:00,
2013-04-12 19:22:00,41.0,34.0,30.00,West,270,7.0,11.0,76,-99.99,,,-99.99,,2013-04-13 00:22:00,
2013-04-12 19:32:00,41.0,34.0,30.00,West,270,6.0,9.0,75,-99.99,,,-99.99,,2013-04-13 00:32:00,
2013-04-12 19:42:00,41.0,34.0,30.00,West,270,6.0,10.0,77,-99.99,,,-99.99,,2013-04-13 00:42:00,
2013-04-12 19:52:00,41.0,34.0,30.01,West,270,6.0,8.0,78,-99.99,,,-99.99,,2013-04-13 00:52:00,
2013-04-12 20:02:00,41.0,35.0,30.01,West,270,5.0,7.0,79,-99.99,,,-99.99,,2013-04-13 01:02:00,
2013-04-12 20:12:00,40.0,35.0,30.01,WSW,247,4.0,6.0,81,-99.99,,,-99.99,,2013-04-13 01:12:00,
2013-04-12 20:22:00,40.0,35.0,30.01,West,270,4.0,6.0,81,-99.99,,,-99.99,,2013-04-13 01:22:00,
2013-04-12 20:32:00,41.0,35.0,30.01,West,270,5.0,7.0,80,-99.99,,,-99.99,,2013-04-13 01:32:00,
2013-04-12 20:42:00,41.0,35.0,30.01,West,270,5.0,7.0,80,-99.99,,,-99.99,,2013-04-13 01:42:00,
2013-04-12 20:52:00,40.0,35.0,30.02,WSW,247,4.0,7.0,81,-99.99,,,-99.99,,2013-04-13 01:52:00,
2013-04-12 21:02:00,40.0,35.0,30.02,West,270,3.0,6.0,83,-99.99,,,-99.99,,2013-04-13 02:02:00,
2013-04-12 21:12:00,40.0,36.0,30.02,WSW,247,4.0,6.0,83,-99.99,,,-99.99,,2013-04-13 02:12:00,
2013-04-12 21:22:00,40.0,36.0,30.02,WSW,247,3.0,6.0,84,-99.99,,,-99.99,,2013-04-13 02:22:00,
2013-04-12 21:32:00,39.0,35.0,30.02,WSW,247,3.0,4.0,85,-99.99,,,-99.99,,2013-04-13 02:32:00,
2013-04-12 21:42:00,39.0,35.0,30.02,WSW,247,3.0,3.0,87,-99.99,,,-99.99,,2013-04-13 02:42:00,
2013-04-12 21:52:00,38.0,35.0,30.02,WSW,247,3.0,3.0,88,-99.99,,,-99.99,,2013-04-13 02:52:00,
2013-04-12 22:02:00,38.0,35.0,30.02,WSW,247,3.0,3.0,90,-99.99,,,-99.99,,2013-04-13 03:02:00,
2013-04-12 22:12:00,38.0,35.0,30.03,WSW,247,3.0,3.0,90,-99.99,,,-99.99,,2013-04-13 03:12:00,
2013-04-12 22:22:00,37.0,35.0,30.03,SW,225,3.0,4.0,91,-99.99,,,-99.99,,2013-04-13 03:22:00,
2013-04-12 22:33:00,37.0,34.0,30.04,SW,225,2.0,3.0,91,-99.99,,,-99.99,,2013-04-13 03:33:00,
2013-04-12 22:42:00,37.0,34.0,30.04,SW,225,2.0,3.0,90,-99.99,,,-99.99,,2013-04-13 03:42:00,
2013-04-12 22:52:00,37.0,34.0,30.04,SSW,202,3.0,4.0,90,-99.99,,,-99.99,,2013-04-13 03:52:00,
2013-04-12 23:02:00,36.0,34.0,30.04,SW,225,2.0,3.0,91,-99.99,,,-99.99,,2013-04-13 04:02:00,
2013-04-12 23:12:00,36.0,34.0,30.04,SW,225,0.0,-999.0,90,-99.99,,,-99.99,,2013-04-13 04:12:00,
2013-04-12 23:23:00,36.0,34.0,30.04,SW,225,2.0,3.0,92,-99.99,,,-99.99,,2013-04-13 04:23:00,
2013-04-12 23:33:00,36.0,34.0,30.04,SSW,202,4.0,5.0,91,-99.99,,,-99.99,,2013-04-13 04:33:00,
2013-04-12 23:42:00,36.0,34.0,30.04,SSW,202,5.0,6.0,91,-99.99,,,-99.99,,2013-04-13 04:42:00,
2013-04-12 23:53:00,36.0,33.0,30.04,SSW,202,4.0,5.0,91,-99.99,,,-99.99,,2013-04-13 04:53:00,